Bettina K — PBEW — position and weather

sailwx.info

Track history (hours):
 
Tides and Currents Weather Stations Pressure Air Temp Water Temp Dewpoint Dewpoint Depression Visibility Wind Speed Wind Dir Waves Ship Positions

Bettina K

Last reported at 2018-Apr-26 03:01 UTC. Time now 2018-Apr-26 21:20 UTC.
Position N 43°33' W 003°36'.

Length 82 m; draft 3 m.

Type: Cargo ship. MMSI: 244730469.

Date/timePositionNaut miles runAvg speedWind from/ knotsBaromVisibWave heightAir tempDewpointWater temp
2018-Apr-26 03:01N 43°33' W 003°36'0 8.0
2018-Apr-26 03:00N 43°33' W 003°36'4 7.9
2018-Apr-26 02:29N 43°33' W 003°30'4 7.9
2018-Apr-26 02:00N 43°33' W 003°25'4 7.9
2018-Apr-26 01:30N 43°32' W 003°20'4 8.3
2018-Apr-26 01:00N 43°32' W 003°14'4 7.9
2018-Apr-26 00:30N 43°32' W 003°08'4 8.0
2018-Apr-26 00:00N 43°31' W 003°03'4 8.5
2018-Apr-25 23:30N 43°30' W 002°57'4 8.5
2018-Apr-25 23:00N 43°30' W 002°52'4 8.5
2018-Apr-25 22:30N 43°29' W 002°46'4 8.4
2018-Apr-25 22:00N 43°29' W 002°40'4 8.3
2018-Apr-25 21:30N 43°28' W 002°34'4 8.4
2018-Apr-25 21:00N 43°27' W 002°29'4 8.4
2018-Apr-25 20:30N 43°25' W 002°23'4 8.6
2018-Apr-25 20:00N 43°25' W 002°17'4 8.4
2018-Apr-25 19:30N 43°24' W 002°12'4 8.3
2018-Apr-25 19:00N 43°23' W 002°06'4 8.4
2018-Apr-25 18:30N 43°22' W 002°01'4 8.0
2018-Apr-25 18:00N 43°20' W 001°56'1 1.6
2018-Apr-25 17:25N 43°19' W 001°55'0 0.0
2018-Apr-25 16:58N 43°19' W 001°55'0 0.0
2018-Apr-25 16:28N 43°19' W 001°55'0 0.0
2018-Apr-25 15:58N 43°19' W 001°55'0 0.0
2018-Apr-25 15:28N 43°19' W 001°55'0 0.0
2018-Apr-25 14:55N 43°19' W 001°55'0 0.0
2018-Apr-25 14:28N 43°19' W 001°55'0 0.0
2018-Apr-25 13:58N 43°19' W 001°55'0 0.0
2018-Apr-25 13:25N 43°19' W 001°55'0 0.0
2018-Apr-25 12:58N 43°19' W 001°55'0 0.0
2018-Apr-25 12:25N 43°19' W 001°55'0 0.0
2018-Apr-25 11:55N 43°19' W 001°55'0 0.0
2018-Apr-25 11:07N 43°19' W 001°55'0 0.0
2018-Apr-25 10:55N 43°19' W 001°55'0 0.0
2018-Apr-25 10:13N 43°19' W 001°55'0 0.0
2018-Apr-25 09:58N 43°19' W 001°55'0 0.0
2018-Apr-25 09:16N 43°19' W 001°55'0 0.0
2018-Apr-25 08:58N 43°19' W 001°55'0 0.0
2018-Apr-25 08:28N 43°19' W 001°55'0 0.0
2018-Apr-25 07:55N 43°19' W 001°55'0 0.0
2018-Apr-25 07:19N 43°19' W 001°55'0 0.0
2018-Apr-25 06:55N 43°19' W 001°55'0 0.0
2018-Apr-25 06:25N 43°19' W 001°55'0 0.0
2018-Apr-25 05:58N 43°19' W 001°55'0 0.0
2018-Apr-25 05:28N 43°19' W 001°55'0 0.0
2018-Apr-25 04:52N 43°19' W 001°55'0 0.0
2018-Apr-25 04:25N 43°19' W 001°55'0 0.0
2018-Apr-25 03:52N 43°19' W 001°55'0 0.0
2018-Apr-25 03:25N 43°19' W 001°55'0 0.0
2018-Apr-25 02:58N 43°19' W 001°55'0 0.0
2018-Apr-25 02:25N 43°19' W 001°55'0 0.0
2018-Apr-25 01:58N 43°19' W 001°55'0 0.0
2018-Apr-25 01:25N 43°19' W 001°55'0 0.0
2018-Apr-25 00:52N 43°19' W 001°55'0 0.0
2018-Apr-25 00:28N 43°19' W 001°55'0 0.0
2018-Apr-24 23:58N 43°19' W 001°55'0 0.0
2018-Apr-24 23:16N 43°19' W 001°55'0 0.0
2018-Apr-24 21:25N 43°19' W 001°55'0 0.0
2018-Apr-24 20:49N 43°19' W 001°55'0 0.0
2018-Apr-24 20:25N 43°19' W 001°55'0 0.0
2018-Apr-24 19:52N 43°19' W 001°55'0 0.0
2018-Apr-24 19:25N 43°19' W 001°55'0 0.0
2018-Apr-24 18:58N 43°19' W 001°55'0 0.0
2018-Apr-24 18:28N 43°19' W 001°55'0 0.0
2018-Apr-24 18:00N 43°19' W 001°55'2 3.6
2018-Apr-24 17:30N 43°21' W 001°56'5 9.4
2018-Apr-24 17:00N 43°25' W 001°59'5 9.9
2018-Apr-24 16:30N 43°29' W 002°02'510.2
2018-Apr-24 16:00N 43°34' W 002°05'510.3
2018-Apr-24 15:30N 43°39' W 002°08'510.2
2018-Apr-24 15:00N 43°43' W 002°11'510.1
2018-Apr-24 14:30N 43°48' W 002°14'510.1
2018-Apr-24 14:00N 43°52' W 002°17'5 9.9
2018-Apr-24 13:30N 43°57' W 002°20'5 9.7
2018-Apr-24 13:00N 44°01' W 002°23'5 9.7
2018-Apr-24 12:30N 44°06' W 002°25'5 9.8
2018-Apr-24 12:00N 44°10' W 002°28'5 9.7
2018-Apr-24 11:30N 44°14' W 002°32'5 9.8
2018-Apr-24 11:00N 44°19' W 002°35'5 9.8
2018-Apr-24 10:29N 44°23' W 002°38'176 9.9
2018-Apr-23 16:45N 47°02' W 004°27'20 9.9
2018-Apr-23 14:45N 47°20' W 004°40'510.0
2018-Apr-23 14:16N 47°24' W 004°43'3810.0
2018-Apr-23 10:28N 47°58' W 005°08'7 9.9
2018-Apr-23 09:47N 48°04' W 005°12'3 9.4
2018-Apr-23 09:26N 48°08' W 005°14'8 8.8
2018-Apr-23 08:33N 48°15' W 005°17'9 9.0
2018-Apr-23 07:33N 48°23' W 005°21'108 9.4
2018-Apr-22 20:00N 49°40' W 003°25'510.5
2018-Apr-22 19:30N 49°43' W 003°19'1210.9
2018-Apr-22 18:22N 49°52' W 003°05'611.1
2018-Apr-22 17:51N 49°56' W 002°58'1910.6
2018-Apr-22 16:06N 50°02' W 002°31'110.0
2018-Apr-22 15:59N 50°03' W 002°29'5 9.7
2018-Apr-22 15:30N 50°04' W 002°22'5 9.2
2018-Apr-22 15:00N 50°05' W 002°16'4 8.5
2018-Apr-22 14:30N 50°06' W 002°09'4 7.9
2018-Apr-22 14:00N 50°08' W 002°03'4 7.4
2018-Apr-22 13:30N 50°09' W 001°58'4 7.0
2018-Apr-22 13:00N 50°10' W 001°53'3 6.8
2018-Apr-22 12:30N 50°11' W 001°47'3 6.8
2018-Apr-22 12:00N 50°12' W 001°42'10 7.3
2018-Apr-22 10:42N 50°14' W 001°28'18 9.6
2018-Apr-22 08:51N 50°20' W 001°02'411.5
2018-Apr-22 08:30N 50°21' W 000°56'611.7
2018-Apr-22 08:00N 50°23' W 000°47'611.9
2018-Apr-22 07:30N 50°24' W 000°38'611.8
2018-Apr-22 07:00N 50°26' W 000°29'611.6
2018-Apr-22 06:29N 50°28' W 000°20'511.2
2018-Apr-22 06:00N 50°29' W 000°12'511.0
2018-Apr-22 05:30N 50°31' W 000°03'510.8
2018-Apr-22 05:00N 50°32' E 000°05'510.5
2018-Apr-22 04:30N 50°34' E 000°13'510.2
2018-Apr-22 04:00N 50°35' E 000°20'5 9.8
2018-Apr-22 03:30N 50°37' E 000°28'5 9.4
2018-Apr-22 03:00N 50°39' E 000°34'5 9.1
2018-Apr-22 02:30N 50°41' E 000°40'4 8.8
2018-Apr-22 02:00N 50°44' E 000°46'4 8.9
2018-Apr-22 01:30N 50°46' E 000°52'5 9.2
2018-Apr-22 01:00N 50°49' E 000°58'5 9.5
2018-Apr-22 00:30N 50°52' E 001°04'610.2
2018-Apr-21 23:55N 50°56' E 001°11'511.3
2018-Apr-21 23:26N 50°59' E 001°18'512.1
2018-Apr-21 23:00N 51°02' E 001°24'612.3
2018-Apr-21 22:30N 51°06' E 001°32'612.1
2018-Apr-21 22:00N 51°11' E 001°39'611.3
2018-Apr-21 21:30N 51°15' E 001°45'510.7
2018-Apr-21 21:00N 51°19' E 001°49'5 9.9
2018-Apr-21 20:30N 51°24' E 001°53'5 9.3
2018-Apr-21 20:00N 51°27' E 001°58'5 9.1
2018-Apr-21 19:30N 51°31' E 002°02'4 8.9
2018-Apr-21 19:01N 51°34' E 002°07'4 8.5
2018-Apr-21 18:30N 51°37' E 002°12'4 8.5
2018-Apr-21 18:00N 51°40' E 002°17'4 8.3
2018-Apr-21 17:30N 51°43' E 002°22'4 8.2
2018-Apr-21 17:00N 51°46' E 002°26'4 8.5
2018-Apr-21 16:30N 51°49' E 002°31'4 8.9
2018-Apr-21 16:00N 51°52' E 002°37'10 9.5
2018-Apr-21 15:00N 51°57' E 002°50'610.4
2018-Apr-21 14:23N 51°60' E 002°59'1010.7
2018-Apr-21 13:27N 52°02' E 003°14'510.8
2018-Apr-21 12:59N 52°03' E 003°23'511.0
2018-Apr-21 12:30N 52°03' E 003°31'611.2
2018-Apr-21 12:00N 52°03' E 003°41'511.1
2018-Apr-21 11:30N 52°03' E 003°49'510.4
2018-Apr-21 11:00N 52°02' E 003°58'611.1
2018-Apr-21 10:30N 51°59' E 004°05'5 9.9
2018-Apr-21 10:00N 51°56' E 004°12'3 5.0
2018-Apr-21 09:30N 51°54' E 004°14'0 0.1
2018-Apr-21 08:58N 51°54' E 004°14'0 0.0
2018-Apr-21 08:28N 51°54' E 004°14'0 0.1
2018-Apr-21 07:58N 51°54' E 004°14'0 0.0
2018-Apr-21 07:28N 51°54' E 004°14'0 0.1
2018-Apr-21 06:58N 51°54' E 004°14'0 0.1
2018-Apr-21 06:28N 51°54' E 004°14'0 0.0
2018-Apr-21 05:58N 51°54' E 004°14'0 0.0
2018-Apr-21 05:28N 51°54' E 004°14'0 0.0
2018-Apr-21 04:58N 51°54' E 004°14'0 0.1
2018-Apr-21 04:28N 51°54' E 004°14'0 0.0
2018-Apr-21 03:58N 51°54' E 004°14'0 0.0
2018-Apr-21 03:28N 51°54' E 004°14'0 0.0
2018-Apr-21 02:58N 51°54' E 004°14'0 0.0
2018-Apr-21 02:28N 51°54' E 004°14'0 0.0
2018-Apr-21 01:58N 51°54' E 004°14'0 0.0
2018-Apr-21 01:28N 51°54' E 004°14'0 0.0
2018-Apr-21 00:58N 51°54' E 004°14'0 0.0
2018-Apr-21 00:28N 51°54' E 004°14'0 0.0
2018-Apr-20 23:58N 51°54' E 004°14'0 0.0
2018-Apr-20 23:25N 51°54' E 004°14'0 0.0
2018-Apr-20 22:58N 51°54' E 004°14'0 0.0
2018-Apr-20 22:28N 51°54' E 004°14'0 0.0
2018-Apr-20 21:58N 51°54' E 004°14'0 0.0
2018-Apr-20 21:28N 51°54' E 004°14'0 0.0
2018-Apr-20 20:58N 51°54' E 004°14'0 0.0
2018-Apr-20 20:28N 51°54' E 004°14'0 0.0
2018-Apr-20 19:58N 51°54' E 004°14'0 0.0
2018-Apr-20 19:28N 51°54' E 004°14'0 0.0
2018-Apr-20 18:58N 51°54' E 004°14'0 0.0
2018-Apr-20 18:28N 51°54' E 004°14'0 0.0
2018-Apr-20 17:58N 51°54' E 004°14'0 0.0
2018-Apr-20 17:28N 51°54' E 004°14'0 0.0
2018-Apr-20 16:58N 51°54' E 004°14'0 0.0
2018-Apr-20 16:28N 51°54' E 004°14'0 0.0
2018-Apr-20 15:58N 51°54' E 004°14'0 0.0
2018-Apr-20 15:25N 51°54' E 004°14'0 0.0
2018-Apr-20 14:58N 51°54' E 004°14'0 0.0
2018-Apr-20 14:28N 51°54' E 004°14'0 0.0
2018-Apr-20 13:58N 51°54' E 004°14'0 0.0
2018-Apr-20 13:28N 51°54' E 004°14'0 0.0
2018-Apr-20 12:58N 51°54' E 004°14'0 0.0
2018-Apr-20 12:28N 51°54' E 004°14'0 0.0
2018-Apr-20 11:58N 51°54' E 004°14'0 0.0
2018-Apr-20 11:28N 51°54' E 004°14'0 0.0
2018-Apr-20 10:58N 51°54' E 004°14'0 0.0
2018-Apr-20 10:28N 51°54' E 004°14'0 0.0
2018-Apr-20 09:58N 51°54' E 004°14'0 0.0
2018-Apr-20 09:28N 51°54' E 004°14'0 0.0
2018-Apr-20 08:58N 51°54' E 004°14'0 0.0
2018-Apr-20 08:28N 51°54' E 004°14'0 0.0
2018-Apr-20 08:00N 51°54' E 004°14'0 0.5
2018-Apr-20 07:31N 51°54' E 004°14'4 8.5
2018-Apr-20 07:00N 51°57' E 004°09'510.0
2018-Apr-20 06:30N 51°59' E 004°02'611.2
2018-Apr-20 06:00N 51°59' E 003°53'612.4
2018-Apr-20 05:30N 51°58' E 003°43'712.1
2018-Apr-20 04:53N 51°56' E 003°31'512.4
2018-Apr-20 04:28N 51°55' E 003°23'612.3
2018-Apr-20 03:59N 51°53' E 003°14'612.4
2018-Apr-20 03:30N 51°52' E 003°04'1612.1
2018-Apr-20 02:13N 51°45' E 002°42'311.6
2018-Apr-20 02:00N 51°44' E 002°38'611.1
2018-Apr-20 01:30N 51°40' E 002°32'510.8
2018-Apr-20 01:00N 51°36' E 002°26'510.2
2018-Apr-20 00:31N 51°32' E 002°21'5 9.4
2018-Apr-19 23:59N 51°29' E 002°16'5 9.4
2018-Apr-19 23:30N 51°24' E 002°12'4 9.0
2018-Apr-19 23:00N 51°21' E 002°09'4 8.8
2018-Apr-19 22:30N 51°17' E 002°05'4 8.1
2018-Apr-19 22:00N 51°13' E 002°02'4 8.2
2018-Apr-19 21:30N 51°11' E 001°57'4 8.2
2018-Apr-19 21:00N 51°08' E 001°51'4 8.3
2018-Apr-19 20:30N 51°06' E 001°46'4 8.3
2018-Apr-19 19:58N 51°03' E 001°41'4 8.8
2018-Apr-19 19:30N 50°60' E 001°37'5 9.2
2018-Apr-19 18:57N 50°56' E 001°32'1010.3
2018-Apr-19 18:00N 50°47' E 001°24'510.5
2018-Apr-19 17:30N 50°43' E 001°20'510.6
2018-Apr-19 17:00N 50°40' E 001°13'510.8
2018-Apr-19 16:30N 50°36' E 001°06'510.6
2018-Apr-19 16:00N 50°33' E 000°60'510.5
2018-Apr-19 15:30N 50°31' E 000°52'1010.7
2018-Apr-19 14:37N 50°28' E 000°38'210.8
2018-Apr-19 14:24N 50°28' E 000°34'710.8
2018-Apr-19 13:48N 50°26' E 000°24'311.0
2018-Apr-19 13:30N 50°25' E 000°19'611.5
2018-Apr-19 12:56N 50°23' E 000°10'512.0
2018-Apr-19 12:30N 50°21' E 000°02'612.5
2018-Apr-19 11:59N 50°20' W 000°08'613.1
2018-Apr-19 11:30N 50°18' W 000°17'713.6
2018-Apr-19 11:00N 50°16' W 000°27'714.0
2018-Apr-19 10:30N 50°14' W 000°38'714.1
2018-Apr-19 10:00N 50°11' W 000°48'714.2
2018-Apr-19 09:31N 50°09' W 000°59'714.1
2018-Apr-19 09:01N 50°07' W 001°09'713.6
2018-Apr-19 08:30N 50°05' W 001°19'713.0
2018-Apr-19 08:00N 50°04' W 001°29'612.1
2018-Apr-19 07:30N 50°02' W 001°38'611.3
2018-Apr-19 07:00N 50°00' W 001°47'510.5
2018-Apr-19 06:30N 49°59' W 001°55'5 9.5
2018-Apr-19 05:59N 49°57' W 002°02'5 8.7
2018-Apr-19 05:27N 49°56' W 002°09'4 8.0
2018-Apr-19 05:00N 49°55' W 002°14'4 7.5
2018-Apr-19 04:30N 49°54' W 002°20'4 7.3
2018-Apr-19 03:54N 49°52' W 002°26'3 7.2
2018-Apr-19 03:30N 49°52' W 002°30'4 7.5
2018-Apr-19 02:56N 49°50' W 002°37'3 7.9
2018-Apr-19 02:30N 49°49' W 002°42'4 8.3
2018-Apr-19 02:00N 49°48' W 002°48'5 8.2
2018-Apr-19 01:26N 49°45' W 002°53'410.3
2018-Apr-19 01:00N 49°40' W 002°52'510.8
2018-Apr-19 00:30N 49°35' W 002°51'611.3
2018-Apr-18 23:57N 49°29' W 002°50'511.9
2018-Apr-18 23:30N 49°24' W 002°47'54 2.6
2018-Apr-18 02:59N 48°39' W 002°01'9 0.4
2018-Apr-17 05:57N 48°46' W 002°10'3 5.0
2018-Apr-17 05:25N 48°48' W 002°13'43 6.6
2018-Apr-16 22:53N 49°23' W 002°50'7 7.0
2018-Apr-16 21:52N 49°30' W 002°50'17 8.0
2018-Apr-16 19:48N 49°47' W 002°53'3 8.3
2018-Apr-16 19:29N 49°49' W 002°54'4 8.5
2018-Apr-16 18:59N 49°54' W 002°55'4 7.4
2018-Apr-16 18:30N 49°57' W 002°54'9 7.7
2018-Apr-16 17:23N 49°59' W 002°41'3011.2
2018-Apr-16 14:41N 50°08' W 001°56'313.7
2018-Apr-16 14:28N 50°09' W 001°52'1713.5
2018-Apr-16 13:13N 50°14' W 001°27'42 8.8
2018-Apr-16 08:29N 50°26' W 000°24'3 6.9
2018-Apr-16 07:59N 50°27' W 000°19'4 7.4
2018-Apr-16 07:30N 50°28' W 000°13'4 8.3
2018-Apr-16 07:00N 50°29' W 000°07'4 9.0
2018-Apr-16 06:30N 50°31' W 000°01'5 9.7
2018-Apr-16 06:00N 50°32' E 000°07'510.5
2018-Apr-16 05:30N 50°34' E 000°14'510.9
2018-Apr-16 05:00N 50°35' E 000°23'611.2
2018-Apr-16 04:30N 50°37' E 000°31'611.1
2018-Apr-16 04:00N 50°39' E 000°39'511.0
2018-Apr-16 03:30N 50°42' E 000°46'  
Track history (hours):
 
Tides and Currents Weather Stations Pressure Air Temp Water Temp Dewpoint Dewpoint Depression Visibility Wind Speed Wind Dir Waves Ship Positions

Bettina K

Last reported at 2018-Apr-26 03:01 UTC. Time now 2018-Apr-26 21:20 UTC.
Position N 43°33' W 003°36'.

Length 82 m; draft 3 m.

Type: Cargo ship. MMSI: 244730469.

Date/timePositionNaut miles runAvg speedWind from/ knotsBaromVisibWave heightAir tempDewpointWater temp
2018-Apr-26 03:01N 43°33' W 003°36'0 8.0
2018-Apr-26 03:00N 43°33' W 003°36'4 7.9
2018-Apr-26 02:29N 43°33' W 003°30'4 7.9
2018-Apr-26 02:00N 43°33' W 003°25'4 7.9
2018-Apr-26 01:30N 43°32' W 003°20'4 8.3
2018-Apr-26 01:00N 43°32' W 003°14'4 7.9
2018-Apr-26 00:30N 43°32' W 003°08'4 8.0
2018-Apr-26 00:00N 43°31' W 003°03'4 8.5
2018-Apr-25 23:30N 43°30' W 002°57'4 8.5
2018-Apr-25 23:00N 43°30' W 002°52'4 8.5
2018-Apr-25 22:30N 43°29' W 002°46'4 8.4
2018-Apr-25 22:00N 43°29' W 002°40'4 8.3
2018-Apr-25 21:30N 43°28' W 002°34'4 8.4
2018-Apr-25 21:00N 43°27' W 002°29'4 8.4
2018-Apr-25 20:30N 43°25' W 002°23'4 8.6
2018-Apr-25 20:00N 43°25' W 002°17'4 8.4
2018-Apr-25 19:30N 43°24' W 002°12'4 8.3
2018-Apr-25 19:00N 43°23' W 002°06'4 8.4
2018-Apr-25 18:30N 43°22' W 002°01'4 8.0
2018-Apr-25 18:00N 43°20' W 001°56'1 1.6
2018-Apr-25 17:25N 43°19' W 001°55'0 0.0
2018-Apr-25 16:58N 43°19' W 001°55'0 0.0
2018-Apr-25 16:28N 43°19' W 001°55'0 0.0
2018-Apr-25 15:58N 43°19' W 001°55'0 0.0
2018-Apr-25 15:28N 43°19' W 001°55'0 0.0
2018-Apr-25 14:55N 43°19' W 001°55'0 0.0
2018-Apr-25 14:28N 43°19' W 001°55'0 0.0
2018-Apr-25 13:58N 43°19' W 001°55'0 0.0
2018-Apr-25 13:25N 43°19' W 001°55'0 0.0
2018-Apr-25 12:58N 43°19' W 001°55'0 0.0
2018-Apr-25 12:25N 43°19' W 001°55'0 0.0
2018-Apr-25 11:55N 43°19' W 001°55'0 0.0
2018-Apr-25 11:07N 43°19' W 001°55'0 0.0
2018-Apr-25 10:55N 43°19' W 001°55'0 0.0
2018-Apr-25 10:13N 43°19' W 001°55'0 0.0
2018-Apr-25 09:58N 43°19' W 001°55'0 0.0
2018-Apr-25 09:16N 43°19' W 001°55'0 0.0
2018-Apr-25 08:58N 43°19' W 001°55'0 0.0
2018-Apr-25 08:28N 43°19' W 001°55'0 0.0
2018-Apr-25 07:55N 43°19' W 001°55'0 0.0
2018-Apr-25 07:19N 43°19' W 001°55'0 0.0
2018-Apr-25 06:55N 43°19' W 001°55'0 0.0
2018-Apr-25 06:25N 43°19' W 001°55'0 0.0
2018-Apr-25 05:58N 43°19' W 001°55'0 0.0
2018-Apr-25 05:28N 43°19' W 001°55'0 0.0
2018-Apr-25 04:52N 43°19' W 001°55'0 0.0
2018-Apr-25 04:25N 43°19' W 001°55'0 0.0
2018-Apr-25 03:52N 43°19' W 001°55'0 0.0
2018-Apr-25 03:25N 43°19' W 001°55'0 0.0
2018-Apr-25 02:58N 43°19' W 001°55'0 0.0
2018-Apr-25 02:25N 43°19' W 001°55'0 0.0
2018-Apr-25 01:58N 43°19' W 001°55'0 0.0
2018-Apr-25 01:25N 43°19' W 001°55'0 0.0
2018-Apr-25 00:52N 43°19' W 001°55'0 0.0
2018-Apr-25 00:28N 43°19' W 001°55'0 0.0
2018-Apr-24 23:58N 43°19' W 001°55'0 0.0
2018-Apr-24 23:16N 43°19' W 001°55'0 0.0
2018-Apr-24 21:25N 43°19' W 001°55'0 0.0
2018-Apr-24 20:49N 43°19' W 001°55'0 0.0
2018-Apr-24 20:25N 43°19' W 001°55'0 0.0
2018-Apr-24 19:52N 43°19' W 001°55'0 0.0
2018-Apr-24 19:25N 43°19' W 001°55'0 0.0
2018-Apr-24 18:58N 43°19' W 001°55'0 0.0
2018-Apr-24 18:28N 43°19' W 001°55'0 0.0
2018-Apr-24 18:00N 43°19' W 001°55'2 3.6
2018-Apr-24 17:30N 43°21' W 001°56'5 9.4
2018-Apr-24 17:00N 43°25' W 001°59'5 9.9
2018-Apr-24 16:30N 43°29' W 002°02'510.2
2018-Apr-24 16:00N 43°34' W 002°05'510.3
2018-Apr-24 15:30N 43°39' W 002°08'510.2
2018-Apr-24 15:00N 43°43' W 002°11'510.1
2018-Apr-24 14:30N 43°48' W 002°14'510.1
2018-Apr-24 14:00N 43°52' W 002°17'5 9.9
2018-Apr-24 13:30N 43°57' W 002°20'5 9.7
2018-Apr-24 13:00N 44°01' W 002°23'5 9.7
2018-Apr-24 12:30N 44°06' W 002°25'5 9.8
2018-Apr-24 12:00N 44°10' W 002°28'5 9.7
2018-Apr-24 11:30N 44°14' W 002°32'5 9.8
2018-Apr-24 11:00N 44°19' W 002°35'5 9.8
2018-Apr-24 10:29N 44°23' W 002°38'176 9.9
2018-Apr-23 16:45N 47°02' W 004°27'20 9.9
2018-Apr-23 14:45N 47°20' W 004°40'510.0
2018-Apr-23 14:16N 47°24' W 004°43'3810.0
2018-Apr-23 10:28N 47°58' W 005°08'7 9.9
2018-Apr-23 09:47N 48°04' W 005°12'3 9.4
2018-Apr-23 09:26N 48°08' W 005°14'8 8.8
2018-Apr-23 08:33N 48°15' W 005°17'9 9.0
2018-Apr-23 07:33N 48°23' W 005°21'108 9.4
2018-Apr-22 20:00N 49°40' W 003°25'510.5
2018-Apr-22 19:30N 49°43' W 003°19'1210.9
2018-Apr-22 18:22N 49°52' W 003°05'611.1
2018-Apr-22 17:51N 49°56' W 002°58'1910.6
2018-Apr-22 16:06N 50°02' W 002°31'110.0
2018-Apr-22 15:59N 50°03' W 002°29'5 9.7
2018-Apr-22 15:30N 50°04' W 002°22'5 9.2
2018-Apr-22 15:00N 50°05' W 002°16'4 8.5
2018-Apr-22 14:30N 50°06' W 002°09'4 7.9
2018-Apr-22 14:00N 50°08' W 002°03'4 7.4
2018-Apr-22 13:30N 50°09' W 001°58'4 7.0
2018-Apr-22 13:00N 50°10' W 001°53'3 6.8
2018-Apr-22 12:30N 50°11' W 001°47'3 6.8
2018-Apr-22 12:00N 50°12' W 001°42'10 7.3
2018-Apr-22 10:42N 50°14' W 001°28'18 9.6
2018-Apr-22 08:51N 50°20' W 001°02'411.5
2018-Apr-22 08:30N 50°21' W 000°56'611.7
2018-Apr-22 08:00N 50°23' W 000°47'611.9
2018-Apr-22 07:30N 50°24' W 000°38'611.8
2018-Apr-22 07:00N 50°26' W 000°29'611.6
2018-Apr-22 06:29N 50°28' W 000°20'511.2
2018-Apr-22 06:00N 50°29' W 000°12'511.0
2018-Apr-22 05:30N 50°31' W 000°03'510.8
2018-Apr-22 05:00N 50°32' E 000°05'510.5
2018-Apr-22 04:30N 50°34' E 000°13'510.2
2018-Apr-22 04:00N 50°35' E 000°20'5 9.8
2018-Apr-22 03:30N 50°37' E 000°28'5 9.4
2018-Apr-22 03:00N 50°39' E 000°34'5 9.1
2018-Apr-22 02:30N 50°41' E 000°40'4 8.8
2018-Apr-22 02:00N 50°44' E 000°46'4 8.9
2018-Apr-22 01:30N 50°46' E 000°52'5 9.2
2018-Apr-22 01:00N 50°49' E 000°58'5 9.5
2018-Apr-22 00:30N 50°52' E 001°04'610.2
2018-Apr-21 23:55N 50°56' E 001°11'511.3
2018-Apr-21 23:26N 50°59' E 001°18'512.1
2018-Apr-21 23:00N 51°02' E 001°24'612.3
2018-Apr-21 22:30N 51°06' E 001°32'612.1
2018-Apr-21 22:00N 51°11' E 001°39'611.3
2018-Apr-21 21:30N 51°15' E 001°45'510.7
2018-Apr-21 21:00N 51°19' E 001°49'5 9.9
2018-Apr-21 20:30N 51°24' E 001°53'5 9.3
2018-Apr-21 20:00N 51°27' E 001°58'5 9.1
2018-Apr-21 19:30N 51°31' E 002°02'4 8.9
2018-Apr-21 19:01N 51°34' E 002°07'4 8.5
2018-Apr-21 18:30N 51°37' E 002°12'4 8.5
2018-Apr-21 18:00N 51°40' E 002°17'4 8.3
2018-Apr-21 17:30N 51°43' E 002°22'4 8.2
2018-Apr-21 17:00N 51°46' E 002°26'4 8.5
2018-Apr-21 16:30N 51°49' E 002°31'4 8.9
2018-Apr-21 16:00N 51°52' E 002°37'10 9.5
2018-Apr-21 15:00N 51°57' E 002°50'610.4
2018-Apr-21 14:23N 51°60' E 002°59'1010.7
2018-Apr-21 13:27N 52°02' E 003°14'510.8
2018-Apr-21 12:59N 52°03' E 003°23'511.0
2018-Apr-21 12:30N 52°03' E 003°31'611.2
2018-Apr-21 12:00N 52°03' E 003°41'511.1
2018-Apr-21 11:30N 52°03' E 003°49'510.4
2018-Apr-21 11:00N 52°02' E 003°58'611.1
2018-Apr-21 10:30N 51°59' E 004°05'5 9.9
2018-Apr-21 10:00N 51°56' E 004°12'3 5.0
2018-Apr-21 09:30N 51°54' E 004°14'0 0.1
2018-Apr-21 08:58N 51°54' E 004°14'0 0.0
2018-Apr-21 08:28N 51°54' E 004°14'0 0.1
2018-Apr-21 07:58N 51°54' E 004°14'0 0.0
2018-Apr-21 07:28N 51°54' E 004°14'0 0.1
2018-Apr-21 06:58N 51°54' E 004°14'0 0.1
2018-Apr-21 06:28N 51°54' E 004°14'0 0.0
2018-Apr-21 05:58N 51°54' E 004°14'0 0.0
2018-Apr-21 05:28N 51°54' E 004°14'0 0.0
2018-Apr-21 04:58N 51°54' E 004°14'0 0.1
2018-Apr-21 04:28N 51°54' E 004°14'0 0.0
2018-Apr-21 03:58N 51°54' E 004°14'0 0.0
2018-Apr-21 03:28N 51°54' E 004°14'0 0.0
2018-Apr-21 02:58N 51°54' E 004°14'0 0.0
2018-Apr-21 02:28N 51°54' E 004°14'0 0.0
2018-Apr-21 01:58N 51°54' E 004°14'0 0.0
2018-Apr-21 01:28N 51°54' E 004°14'0 0.0
2018-Apr-21 00:58N 51°54' E 004°14'0 0.0
2018-Apr-21 00:28N 51°54' E 004°14'0 0.0
2018-Apr-20 23:58N 51°54' E 004°14'0 0.0
2018-Apr-20 23:25N 51°54' E 004°14'0 0.0
2018-Apr-20 22:58N 51°54' E 004°14'0 0.0
2018-Apr-20 22:28N 51°54' E 004°14'0 0.0
2018-Apr-20 21:58N 51°54' E 004°14'0 0.0
2018-Apr-20 21:28N 51°54' E 004°14'0 0.0
2018-Apr-20 20:58N 51°54' E 004°14'0 0.0
2018-Apr-20 20:28N 51°54' E 004°14'0 0.0
2018-Apr-20 19:58N 51°54' E 004°14'0 0.0
2018-Apr-20 19:28N 51°54' E 004°14'0 0.0
2018-Apr-20 18:58N 51°54' E 004°14'0 0.0
2018-Apr-20 18:28N 51°54' E 004°14'0 0.0
2018-Apr-20 17:58N 51°54' E 004°14'0 0.0
2018-Apr-20 17:28N 51°54' E 004°14'0 0.0
2018-Apr-20 16:58N 51°54' E 004°14'0 0.0
2018-Apr-20 16:28N 51°54' E 004°14'0 0.0
2018-Apr-20 15:58N 51°54' E 004°14'0 0.0
2018-Apr-20 15:25N 51°54' E 004°14'0 0.0
2018-Apr-20 14:58N 51°54' E 004°14'0 0.0
2018-Apr-20 14:28N 51°54' E 004°14'0 0.0
2018-Apr-20 13:58N 51°54' E 004°14'0 0.0
2018-Apr-20 13:28N 51°54' E 004°14'0 0.0
2018-Apr-20 12:58N 51°54' E 004°14'0 0.0
2018-Apr-20 12:28N 51°54' E 004°14'0 0.0
2018-Apr-20 11:58N 51°54' E 004°14'0 0.0
2018-Apr-20 11:28N 51°54' E 004°14'0 0.0
2018-Apr-20 10:58N 51°54' E 004°14'0 0.0
2018-Apr-20 10:28N 51°54' E 004°14'0 0.0
2018-Apr-20 09:58N 51°54' E 004°14'0 0.0
2018-Apr-20 09:28N 51°54' E 004°14'0 0.0
2018-Apr-20 08:58N 51°54' E 004°14'0 0.0
2018-Apr-20 08:28N 51°54' E 004°14'0 0.0
2018-Apr-20 08:00N 51°54' E 004°14'0 0.5
2018-Apr-20 07:31N 51°54' E 004°14'4 8.5
2018-Apr-20 07:00N 51°57' E 004°09'510.0
2018-Apr-20 06:30N 51°59' E 004°02'611.2
2018-Apr-20 06:00N 51°59' E 003°53'612.4
2018-Apr-20 05:30N 51°58' E 003°43'712.1
2018-Apr-20 04:53N 51°56' E 003°31'512.4
2018-Apr-20 04:28N 51°55' E 003°23'612.3
2018-Apr-20 03:59N 51°53' E 003°14'612.4
2018-Apr-20 03:30N 51°52' E 003°04'1612.1
2018-Apr-20 02:13N 51°45' E 002°42'311.6
2018-Apr-20 02:00N 51°44' E 002°38'611.1
2018-Apr-20 01:30N 51°40' E 002°32'510.8
2018-Apr-20 01:00N 51°36' E 002°26'510.2
2018-Apr-20 00:31N 51°32' E 002°21'5 9.4
2018-Apr-19 23:59N 51°29' E 002°16'5 9.4
2018-Apr-19 23:30N 51°24' E 002°12'4 9.0
2018-Apr-19 23:00N 51°21' E 002°09'4 8.8
2018-Apr-19 22:30N 51°17' E 002°05'4 8.1
2018-Apr-19 22:00N 51°13' E 002°02'4 8.2
2018-Apr-19 21:30N 51°11' E 001°57'4 8.2
2018-Apr-19 21:00N 51°08' E 001°51'4 8.3
2018-Apr-19 20:30N 51°06' E 001°46'4 8.3
2018-Apr-19 19:58N 51°03' E 001°41'4 8.8
2018-Apr-19 19:30N 50°60' E 001°37'5 9.2
2018-Apr-19 18:57N 50°56' E 001°32'1010.3
2018-Apr-19 18:00N 50°47' E 001°24'510.5
2018-Apr-19 17:30N 50°43' E 001°20'510.6
2018-Apr-19 17:00N 50°40' E 001°13'510.8
2018-Apr-19 16:30N 50°36' E 001°06'510.6
2018-Apr-19 16:00N 50°33' E 000°60'510.5
2018-Apr-19 15:30N 50°31' E 000°52'1010.7
2018-Apr-19 14:37N 50°28' E 000°38'210.8
2018-Apr-19 14:24N 50°28' E 000°34'710.8
2018-Apr-19 13:48N 50°26' E 000°24'311.0
2018-Apr-19 13:30N 50°25' E 000°19'611.5
2018-Apr-19 12:56N 50°23' E 000°10'512.0
2018-Apr-19 12:30N 50°21' E 000°02'612.5
2018-Apr-19 11:59N 50°20' W 000°08'613.1
2018-Apr-19 11:30N 50°18' W 000°17'713.6
2018-Apr-19 11:00N 50°16' W 000°27'714.0
2018-Apr-19 10:30N 50°14' W 000°38'714.1
2018-Apr-19 10:00N 50°11' W 000°48'714.2
2018-Apr-19 09:31N 50°09' W 000°59'714.1
2018-Apr-19 09:01N 50°07' W 001°09'713.6
2018-Apr-19 08:30N 50°05' W 001°19'713.0
2018-Apr-19 08:00N 50°04' W 001°29'612.1
2018-Apr-19 07:30N 50°02' W 001°38'611.3
2018-Apr-19 07:00N 50°00' W 001°47'510.5
2018-Apr-19 06:30N 49°59' W 001°55'5 9.5
2018-Apr-19 05:59N 49°57' W 002°02'5 8.7
2018-Apr-19 05:27N 49°56' W 002°09'4 8.0
2018-Apr-19 05:00N 49°55' W 002°14'4 7.5
2018-Apr-19 04:30N 49°54' W 002°20'4 7.3
2018-Apr-19 03:54N 49°52' W 002°26'3 7.2
2018-Apr-19 03:30N 49°52' W 002°30'4 7.5
2018-Apr-19 02:56N 49°50' W 002°37'3 7.9
2018-Apr-19 02:30N 49°49' W 002°42'4 8.3
2018-Apr-19 02:00N 49°48' W 002°48'5 8.2
2018-Apr-19 01:26N 49°45' W 002°53'410.3
2018-Apr-19 01:00N 49°40' W 002°52'510.8
2018-Apr-19 00:30N 49°35' W 002°51'611.3
2018-Apr-18 23:57N 49°29' W 002°50'511.9
2018-Apr-18 23:30N 49°24' W 002°47'54 2.6
2018-Apr-18 02:59N 48°39' W 002°01'9 0.4
2018-Apr-17 05:57N 48°46' W 002°10'3 5.0
2018-Apr-17 05:25N 48°48' W 002°13'43 6.6
2018-Apr-16 22:53N 49°23' W 002°50'7 7.0
2018-Apr-16 21:52N 49°30' W 002°50'17 8.0
2018-Apr-16 19:48N 49°47' W 002°53'3 8.3
2018-Apr-16 19:29N 49°49' W 002°54'4 8.5
2018-Apr-16 18:59N 49°54' W 002°55'4 7.4
2018-Apr-16 18:30N 49°57' W 002°54'9 7.7
2018-Apr-16 17:23N 49°59' W 002°41'3011.2
2018-Apr-16 14:41N 50°08' W 001°56'313.7
2018-Apr-16 14:28N 50°09' W 001°52'1713.5
2018-Apr-16 13:13N 50°14' W 001°27'42 8.8
2018-Apr-16 08:29N 50°26' W 000°24'3 6.9
2018-Apr-16 07:59N 50°27' W 000°19'4 7.4
2018-Apr-16 07:30N 50°28' W 000°13'4 8.3
2018-Apr-16 07:00N 50°29' W 000°07'4 9.0
2018-Apr-16 06:30N 50°31' W 000°01'5 9.7
2018-Apr-16 06:00N 50°32' E 000°07'510.5
2018-Apr-16 05:30N 50°34' E 000°14'510.9
2018-Apr-16 05:00N 50°35' E 000°23'611.2
2018-Apr-16 04:30N 50°37' E 000°31'611.1
2018-Apr-16 04:00N 50°39' E 000°39'511.0
2018-Apr-16 03:30N 50°42' E 000°46'  

Dump ship's entire track history